Map

Track Data

SID SEASON NUMBER BASIN SUBBASIN NAME ISO_TIME NATURE LAT LON WMO_WIND WMO_PRES WMO_AGENCY TRACK_TYPE DIST2LAND LANDFALL IFLAG USA_AGENCY USA_ATCF_ID USA_LAT USA_LON USA_RECORD USA_STATUS USA_WIND USA_PRES USA_SSHS USA_R34_NE USA_R34_SE USA_R34_SW USA_R34_NW USA_R50_NE USA_R50_SE USA_R50_SW USA_R50_NW USA_R64_NE USA_R64_SE USA_R64_SW USA_R64_NW USA_POCI USA_ROCI USA_RMW USA_EYE TOKYO_LAT TOKYO_LON TOKYO_GRADE TOKYO_WIND TOKYO_PRES TOKYO_R50_DIR TOKYO_R50_LONG TOKYO_R50_SHORT TOKYO_R30_DIR TOKYO_R30_LONG TOKYO_R30_SHORT TOKYO_LAND CMA_LAT CMA_LON CMA_CAT CMA_WIND CMA_PRES HKO_LAT HKO_LON HKO_CAT HKO_WIND HKO_PRES NEWDELHI_LAT NEWDELHI_LON NEWDELHI_GRADE NEWDELHI_WIND NEWDELHI_PRES NEWDELHI_CI NEWDELHI_DP NEWDELHI_POCI REUNION_LAT REUNION_LON REUNION_TYPE REUNION_WIND REUNION_PRES REUNION_TNUM REUNION_CI REUNION_RMW REUNION_R34_NE REUNION_R34_SE REUNION_R34_SW REUNION_R34_NW REUNION_R50_NE REUNION_R50_SE REUNION_R50_SW REUNION_R50_NW REUNION_R64_NE REUNION_R64_SE REUNION_R64_SW REUNION_R64_NW BOM_LAT BOM_LON BOM_TYPE BOM_WIND BOM_PRES BOM_TNUM BOM_CI BOM_RMW BOM_R34_NE BOM_R34_SE BOM_R34_SW BOM_R34_NW BOM_R50_NE BOM_R50_SE BOM_R50_SW BOM_R50_NW BOM_R64_NE BOM_R64_SE BOM_R64_SW BOM_R64_NW BOM_ROCI BOM_POCI BOM_EYE BOM_POS_METHOD BOM_PRES_METHOD NADI_LAT NADI_LON NADI_CAT NADI_WIND NADI_PRES WELLINGTON_LAT WELLINGTON_LON WELLINGTON_WIND WELLINGTON_PRES DS824_LAT DS824_LON DS824_STAGE DS824_WIND DS824_PRES TD9636_LAT TD9636_LON TD9636_STAGE TD9636_WIND TD9636_PRES TD9635_LAT TD9635_LON TD9635_WIND TD9635_PRES TD9635_ROCI NEUMANN_LAT NEUMANN_LON NEUMANN_CLASS NEUMANN_WIND NEUMANN_PRES MLC_LAT MLC_LON MLC_CLASS MLC_WIND MLC_PRES USA_GUST BOM_GUST BOM_GUST_PER REUNION_GUST REUNION_GUST_PER USA_SEAHGT USA_SEARAD_NE USA_SEARAD_SE USA_SEARAD_SW USA_SEARAD_NW STORM_SPEED STORM_DIR
1967060S22159 1967 18 SP EA NOT_NAMED 1967-02-28 17:00:00 NR -21.7000 158.600 main 581 581 __________O___ -1 -21.7000 158.600 2 43 0 0
1967060S22159 1967 18 SP EA NOT_NAMED 1967-02-28 18:00:00 TS -21.7039 158.601 main 581 581 O________OP___ jtwc_sh SH211967 -21.7000 158.600 45 0 -21.7000 158.600 TC 45 -21.7078 158.602 2 43 0 0
1967060S22159 1967 18 SP EA NOT_NAMED 1967-02-28 21:00:00 TS -21.7050 158.601 main 581 581 P________PP___ SH211967 -21.6825 158.593 47 0 -21.6825 158.593 TC 47 -21.7350 158.612 2 45 0 0
1967060S22159 1967 18 SP EA NOT_NAMED 1967-03-01 00:00:00 TS -21.7457 158.620 main 581 574 O________OP_O_ jtwc_sh SH211967 -21.7000 158.600 50 0 -21.7000 158.600 TC 50 -21.7756 158.630 2 47 -21.9000 158.700 TC 50 1 155
1967060S22159 1967 18 SP EA NOT_NAMED 1967-03-01 03:00:00 TS -21.8341 158.667 main 574 574 P________PP_P_ SH211967 -21.7775 158.635 50 0 -21.7775 158.635 TC 50 -21.8395 158.665 2 48 -22.0500 158.800 TC 45 2 154
1967060S22159 1967 18 SP EA NOT_NAMED 1967-03-01 05:00:00 TS -21.9264 158.720 main 578 578 P________PO_P_ SH211967 -21.8557 158.675 50 0 -21.8557 158.675 TC 50 -21.9000 158.700 2 50 -22.1500 158.867 TC 41 3 153
1967060S22159 1967 18 SP EA NOT_NAMED 1967-03-01 06:00:00 TS -21.9841 158.756 main 571 571 O________OP_O_ jtwc_sh SH211967 -21.9000 158.700 50 0 -21.9000 158.700 TC 50 -21.9366 158.722 2 48 -22.2000 158.900 TC 40 3 150
1967060S22159 1967 18 SP EA NOT_NAMED 1967-03-01 09:00:00 TS -22.1259 158.847 main 575 565 P________PP_P_ SH211967 -22.0425 158.792 42 0 -22.0425 158.792 TC 42 -22.0684 158.804 2 43 -22.3500 159.000 TC 35 3 149
1967060S22159 1967 18 SP EA NOT_NAMED 1967-03-01 12:00:00 TS -22.2809 158.951 main 564 564 O________OP_O_ jtwc_sh SH211967 -22.2000 158.900 35 0 -22.2000 158.900 TC 35 -22.2235 158.905 2 38 -22.5000 159.100 TC 30 4 149
1967060S22159 1967 18 SP EA NOT_NAMED 1967-03-01 15:00:00 TS -22.4349 159.049 main 568 558 P________PP_P_ SH211967 -22.3500 158.993 32 -1 -22.3500 158.993 TC 32 -22.3895 159.020 2 33 -22.6500 159.193 TC 32 4 148
1967060S22159 1967 18 SP EA NOT_NAMED 1967-03-01 17:00:00 TS -22.5375 159.121 main 563 559 P________PO_P_ SH211967 -22.4500 159.061 30 -1 -22.4500 159.061 TC 30 -22.5000 159.100 1 30 -22.7500 159.261 TC 34 4 146
1967060S22159 1967 18 SP EA NOT_NAMED 1967-03-01 18:00:00 TS -22.5878 159.160 main 559 555 O________OP_O_ jtwc_sh SH211967 -22.5000 159.100 30 -1 -22.5000 159.100 TC 30 -22.5512 159.141 1 30 -22.8000 159.300 TC 35 4 141
1967060S22159 1967 18 SP EA NOT_NAMED 1967-03-01 21:00:00 TS -22.7408 159.305 main 555 551 P________PP_P_ SH211967 -22.6500 159.250 32 -1 -22.6500 159.250 TC 32 -22.7055 159.270 1 32 -22.9575 159.450 TC 35 4 138
1967060S22159 1967 18 SP EA NOT_NAMED 1967-03-02 00:00:00 TS -22.8895 159.450 main 548 545 O________OP_O_ jtwc_sh SH211967 -22.8000 159.400 35 0 -22.8000 159.400 TC 35 -22.8580 159.401 1 34 -23.1000 159.600 TC 35 4 140
1967060S22159 1967 18 SP EA NOT_NAMED 1967-03-02 03:00:00 TS -23.0264 159.564 main 545 545 P________PP_P_ SH211967 -22.9500 159.508 37 0 -22.9500 159.508 TC 37 -23.0057 159.525 1 35 -23.2000 159.715 TC 40 3 144
1967060S22159 1967 18 SP EA NOT_NAMED 1967-03-02 05:00:00 TS -23.1159 159.628 main 551 549 P________PO_P_ SH211967 -23.0500 159.569 39 0 -23.0500 159.569 TC 39 -23.1000 159.600 2 37 -23.2636 159.775 TC 43 3 147
1967060S22159 1967 18 SP EA NOT_NAMED 1967-03-02 06:00:00 TS -23.1597 159.658 main 549 549 O________OP_O_ jtwc_sh SH211967 -23.1000 159.600 40 0 -23.1000 159.600 TC 40 -23.1388 159.633 2 38 -23.3000 159.800 TC 45 3 148
1967060S22159 1967 18 SP EA NOT_NAMED 1967-03-02 09:00:00 TS -23.2937 159.747 main 556 548 P________PP_P_ SH211967 -23.2500 159.708 45 0 -23.2500 159.708 TC 45 -23.2474 159.721 2 42 -23.4275 159.850 TC 50 3 151
1967060S22159 1967 18 SP EA NOT_NAMED 1967-03-02 12:00:00 TS -23.4396 159.824 main 554 552 O________OP_O_ jtwc_sh SH211967 -23.4000 159.800 50 0 -23.4000 159.800 TC 50 -23.3584 159.796 2 47 -23.6000 159.900 TC 55 3 156
1967060S22159 1967 18 SP EA NOT_NAMED 1967-03-02 15:00:00 TS -23.6027 159.896 main 558 558 P________PP_P_ SH211967 -23.5425 159.858 52 0 -23.5425 159.858 TC 52 -23.4907 159.861 2 51 -23.8350 160.007 TC 52 4 160
1967060S22159 1967 18 SP EA NOT_NAMED 1967-03-02 17:00:00 TS -23.7250 159.937 main 565 563 P________PO_P_ SH211967 -23.6443 159.886 54 0 -23.6443 159.886 TC 54 -23.6000 159.900 2 55 -24.0114 160.075 TC 50 4 162
1967060S22159 1967 18 SP EA NOT_NAMED 1967-03-02 18:00:00 TS -23.7913 159.957 main 563 563 O________OP_O_ jtwc_sh SH211967 -23.7000 159.900 55 0 -23.7000 159.900 TC 55 -23.6653 159.929 2 54 -24.1000 160.100 TC 50 4 166
1967060S22159 1967 18 SP MM NOT_NAMED 1967-03-02 21:00:00 TS -23.9965 160.011 main 576 576 P________PP_P_ SH211967 -23.8775 159.950 52 0 -23.8775 159.950 TC 52 -23.8884 160.012 2 51 -24.3425 160.130 TC 47 5 170
1967060S22159 1967 18 SP MM NOT_NAMED 1967-03-03 00:00:00 TS -24.2356 160.045 main 590 588 O________OP_O_ jtwc_sh SH211967 -24.1000 160.000 50 0 -24.1000 160.000 TC 50 -24.1422 160.078 2 49 -24.6000 160.100 TC 45 5 175
1967060S22159 1967 18 SP MM NOT_NAMED 1967-03-03 03:00:00 TS -24.5249 160.069 main 601 601 P________PP_P_ SH211967 -24.3925 160.072 47 0 -24.3925 160.072 TC 47 -24.4145 160.109 2 46 -24.9000 160.023 TC 42 6 177
1967060S22159 1967 18 SP MM NOT_NAMED 1967-03-03 05:00:00 TS -24.7260 160.061 main 613 613 P________PO_P_ SH211967 -24.6005 160.100 45 0 -24.6005 160.100 TC 45 -24.6000 160.100 2 45 -25.1031 159.944 TC 40 6 0
1967060S22159 1967 18 SP MM NOT_NAMED 1967-03-03 06:00:00 TS -24.8218 160.047 main 628 628 O________OP_O_ jtwc_sh SH211967 -24.7000 160.100 45 0 -24.7000 160.100 TC 45 -24.6870 160.089 2 44 -25.2000 159.900 TC 40 5 193
1967060S22159 1967 18 SP EA NOT_NAMED 1967-03-03 09:00:00 TS -25.0758 159.969 main 649 644 P________PP_P_ SH211967 -24.9500 160.037 42 0 -24.9500 160.037 TC 42 -24.9531 160.021 2 43 -25.4499 159.780 TC 40 6 202
1967060S22159 1967 18 SP EA NOT_NAMED 1967-03-03 12:00:00 TS -25.3317 159.826 main 644 626 O________OP_O_ jtwc_sh SH211967 -25.2000 159.900 40 0 -25.2000 159.900 TC 40 -25.2268 159.902 2 42 -25.7000 159.600 TC 40 6 210
1967060S22159 1967 18 SP EA NOT_NAMED 1967-03-03 15:00:00 TS -25.6252 159.624 main 626 617 P________PP_P_ SH211967 -25.5000 159.723 40 0 -25.5000 159.723 TC 40 -25.5082 159.736 2 40 -25.9926 159.315 TC 45 7 213
1967060S22159 1967 18 SP EA NOT_NAMED 1967-03-03 17:00:00 TS -25.8259 159.464 main 618 610 P________PO_P_ SH211967 -25.7031 159.578 40 0 -25.7031 159.578 TC 40 -25.7000 159.600 2 40 -26.1974 159.102 TC 48 7 217
1967060S22159 1967 18 SP EA NOT_NAMED 1967-03-03 18:00:00 TS -25.9228 159.380 main 610 586 O________OP_O_ jtwc_sh SH211967 -25.8000 159.500 40 0 -25.8000 159.500 TC 40 -25.7912 159.520 2 41 -26.3000 159.000 TC 50 7 220
1967060S22159 1967 18 SP EA NOT_NAMED 1967-03-03 21:00:00 TS -26.1882 159.125 main 586 560 P________PP_P_ SH211967 -26.0424 159.265 45 0 -26.0424 159.265 TC 45 -26.0678 159.244 2 46 -26.6000 158.727 TC 55 7 221
1967060S22159 1967 18 SP EA NOT_NAMED 1967-03-04 00:00:00 TS -26.4644 158.861 main 556 516 O________OP_O_ jtwc_sh SH211967 -26.3000 159.000 50 0 -26.3000 159.000 TC 50 -26.3575 158.945 2 51 -26.9000 158.500 TC 60 8 219
1967060S22159 1967 18 SP EA NOT_NAMED 1967-03-04 03:00:00 TS -26.7817 158.588 main 516 491 P________PP_P_ SH211967 -26.6276 158.685 55 0 -26.6276 158.685 TC 55 -26.6715 158.661 2 56 -27.2000 158.320 TC 60 8 215
1967060S22159 1967 18 SP EA NOT_NAMED 1967-03-04 05:00:00 TS -27.0112 158.426 main 491 487 P________PO_P_ SH211967 -26.8724 158.486 58 0 -26.8724 158.486 TC 58 -26.9000 158.500 2 60 -27.4000 158.233 TC 60 8 211
1967060S22159 1967 18 SP EA NOT_NAMED 1967-03-04 06:00:00 TS -27.1308 158.355 main 487 458 O________OP_O_ jtwc_sh SH211967 -27.0000 158.400 60 0 -27.0000 158.400 TC 60 -27.0231 158.421 2 60 -27.5000 158.200 TC 60 8 204
1967060S22159 1967 18 SP EA NOT_NAMED 1967-03-04 09:00:00 TS -27.5039 158.184 main 458 442 P________PP_P_ SH211967 -27.3849 158.198 62 0 -27.3849 158.198 TC 62 -27.4157 158.219 2 62 -27.8300 158.120 TC 62 8 197
1967060S22159 1967 18 SP EA NOT_NAMED 1967-03-04 12:00:00 TS -27.8816 158.101 main 442 440 O________OP_O_ jtwc_sh SH211967 -27.8000 158.100 65 1 -27.8000 158.100 TC 65 -27.8266 158.105 2 63 -28.1000 158.100 TC 65 7 187
1967060S22159 1967 18 SP EA NOT_NAMED 1967-03-04 14:00:00 TS -28.1179 158.101 main 440 440 P________PO_P_ SH211967 -28.0866 158.091 58 0 -28.0866 158.091 TC 58 -28.1000 158.100 3 65 -28.1983 158.123 TC 59 7 0
1967060S22159 1967 18 SP EA NOT_NAMED 1967-03-04 15:00:00 TS -28.2317 158.119 main 440 440 P________PP_P_ SH211967 -28.2350 158.105 55 0 -28.2350 158.105 TC 55 -28.2269 158.124 3 56 -28.2300 158.142 TC 57 7 169
1967060S22159 1967 18 SP EA NOT_NAMED 1967-03-04 17:00:00 TS -28.4651 158.177 main 448 448 P________PO_P_ SH211967 -28.5416 158.161 48 0 -28.5416 158.161 TC 48 -28.5000 158.200 2 38 -28.2772 158.184 TC 52 7 167
1967060S22159 1967 18 SP EA NOT_NAMED 1967-03-04 18:00:00 TS -28.5893 158.208 main 448 447 O________OP_O_ jtwc_sh SH211967 -28.7000 158.200 45 0 -28.7000 158.200 TC 45 -28.6572 158.231 2 48 -28.3000 158.200 TC 50 8 168
1967060S22159 1967 18 SP EA NOT_NAMED 1967-03-04 20:00:00 TS -28.8503 158.264 main 456 456 P________PO_P_ SH211967 -29.0200 158.273 48 0 -29.0200 158.273 TC 48 -29.0000 158.300 3 70 -28.3612 158.208 TC 46 8 169
1967060S22159 1967 18 SP EA NOT_NAMED 1967-03-04 21:00:00 TS -28.9831 158.299 main 456 456 P________PP_P_ SH211967 -29.1850 158.320 50 0 -29.1850 158.320 TC 50 -29.1700 158.347 3 66 -28.3925 158.208 TC 45 9 165
1967060S22159 1967 18 SP EA NOT_NAMED 1967-03-05 00:00:00 TS -29.3981 158.433 main 468 468 O________OP_O_ jtwc_sh SH211967 -29.7000 158.500 55 0 -29.7000 158.500 TC 55 -29.6925 158.533 3 54 -28.5000 158.200 TC 40 9 162
1967060S22159 1967 18 SP EA NOT_NAMED 1967-03-05 03:00:00 TS -29.8418 158.611 main 494 494 P________PP_P_ SH211967 -30.2426 158.750 45 0 -30.2426 158.750 TC 45 -30.2320 158.753 3 42 -28.6500 158.193 TC 47 10 161
1967060S22159 1967 18 SP EA NOT_NAMED 1967-03-05 05:00:00 TS -30.1453 158.735 main 510 510 P________PO_P_ SH211967 -30.6141 158.923 38 0 -30.6141 158.923 TC 38 -30.6000 158.900 2 35 -28.7531 158.194 TC 52 10 161
1967060S22159 1967 18 SP EA NOT_NAMED 1967-03-05 06:00:00 TS -30.2957 158.790 main 525 525 O________OP_O_ jtwc_sh SH211967 -30.8000 159.000 35 0 -30.8000 159.000 TC 35 -30.7830 158.960 2 34 -28.8000 158.200 TC 55 9 164
1967060S22159 1967 18 SP EA NOT_NAMED 1967-03-05 09:00:00 TS -30.7221 158.919 main 544 544 P________PP_P_ SH211967 -31.3424 159.158 32 -1 -31.3424 159.158 TC 32 -31.3410 159.134 2 33 -28.8625 158.228 TC 57 9 166
1967060S22159 1967 18 SP EA NOT_NAMED 1967-03-05 12:00:00 TS -31.1783 159.051 main 570 570 O________OP_O_ jtwc_sh SH211967 -31.9000 159.300 30 -1 -31.9000 159.300 TC 30 -31.9133 159.302 2 32 -29.0000 158.300 TC 60 10 165
1967060S22159 1967 18 SP EA NOT_NAMED 1967-03-05 15:00:00 TS -31.7063 159.224 main 581 581 P________PP_P_ SH211967 -32.4850 159.493 30 -1 -32.4850 159.493 TC 30 -32.5003 159.476 2 30 -29.3390 158.429 TC 55 13 164
1967060S22159 1967 18 SP EA NOT_NAMED 1967-03-05 17:00:00 TS -32.2457 159.405 main 607 607 P________PO_P_ SH211967 -32.8917 159.631 30 -1 -32.8917 159.631 TC 30 -32.9000 159.600 1 30 -29.6387 158.540 TC 51 19 164
1967060S22159 1967 18 SP EA NOT_NAMED 1967-03-05 18:00:00 TS -32.6289 159.529 main 626 626 O________OP_O_ jtwc_sh SH211967 -33.1000 159.700 30 -1 -33.1000 159.700 TC 30 -33.1013 159.652 1 29 -29.8000 158.600 TC 50 19 166
1967060S22159 1967 18 SP EA NOT_NAMED 1967-03-05 21:00:00 TS -33.4648 159.780 main 680 680 P________PP_P_ SH211967 -33.7499 159.893 30 -1 -33.7499 159.893 TC 30 -33.7162 159.812 1 26 -30.2679 158.720 TC 18 166
1967060S22159 1967 18 SP MM NOT_NAMED 1967-03-06 00:00:00 TS -34.3811 160.069 main 737 737 O________OP_P_ jtwc_sh SH211967 -34.4000 160.100 30 -1 -34.4000 160.100 TC 30 -34.3433 160.006 1 24 -30.7868 158.823 TC 16 165
1967060S22159 1967 18 SP MM NOT_NAMED 1967-03-06 03:00:00 TS -34.9920 160.284 main 775 775 P________PP_P_ SH211967 -34.9995 160.292 30 -1 -34.9995 160.292 TC 30 -34.9770 160.268 1 21 -31.3484 158.920 TC 13 162
1967060S22159 1967 18 SP MM NOT_NAMED 1967-03-06 05:00:00 TS -35.3977 160.483 main 808 808 P________PO_P_ SH211967 -35.3966 160.475 30 -1 -35.3966 160.475 TC 30 -35.4000 160.500 1 20 -31.7423 158.987 TC 14 156
1967060S22159 1967 18 SP MM NOT_NAMED 1967-03-06 06:00:00 TS -35.6112 160.618 main 825 825 O________OP_P_ jtwc_sh SH211967 -35.6000 160.600 30 -1 -35.6000 160.600 TC 30 -35.6336 160.655 1 -31.9441 159.022 TC 16 148
1967060S22159 1967 18 SP MM NOT_NAMED 1967-03-06 09:00:00 TS -36.2818 161.170 main 907 907 P________PP_P_ SH211967 -36.2504 161.154 27 -1 -36.2504 161.154 TC 27 -36.3445 161.202 1 -32.5654 159.139 TC 16 144
1967060S22159 1967 18 SP MM NOT_NAMED 1967-03-06 12:00:00 TS -36.9402 161.806 main 969 875 O________OP_P_ jtwc_sh SH211967 -36.9000 161.800 25 -1 -36.9000 161.800 TC 25 -37.0206 161.819 1 -33.2037 159.284 TC 16 143
1967060S22159 1967 18 SP MM NOT_NAMED 1967-03-06 15:00:00 TS -37.5829 162.397 main 875 833 P________PP_P_ SH211967 -37.5749 162.379 25 -1 -37.5749 162.379 TC 25 -37.5990 162.432 1 -33.8504 159.467 TC 15 143
1967060S22159 1967 18 SP MM NOT_NAMED 1967-03-06 17:00:00 TS -37.9360 162.757 main 828 805 P________PO_P_ SH211967 -37.9540 162.736 25 -1 -37.9540 162.736 TC 25 -37.9000 162.800 1 -34.2819 159.617 TC 13 140
1967060S22159 1967 18 SP MM NOT_NAMED 1967-03-06 18:00:00 TS -38.0698 162.918 main 805 767 O________OP_P_ jtwc_sh SH211967 -38.1000 162.900 25 -1 -38.1000 162.900 TC 25 -38.0094 162.953 1 -34.4968 159.701 TC 9 128
1967060S22159 1967 18 SP MM NOT_NAMED 1967-03-06 21:00:00 TS -38.3027 163.350 main 767 740 P________PP_P_ SH211967 -38.3398 163.346 25 -1 -38.3398 163.346 TC 25 -38.2286 163.357 1 -35.1340 159.999 TC 7 117
1967060S22159 1967 18 SP MM NOT_NAMED 1967-03-07 00:00:00 TS -38.3769 163.695 main 740 728 O________OP_P_ jtwc_sh SH211967 -38.4000 163.700 25 -1 -38.4000 163.700 TC 25 -38.3306 163.686 1 -35.7532 160.373 TC 5 101
1967060S22159 1967 18 SP MM NOT_NAMED 1967-03-07 03:00:00 TS -38.3964 163.981 main 728 728 P________PP_P_ SH211967 -38.4074 163.995 25 -1 -38.4074 163.995 TC 25 -38.3743 163.952 1 -36.3451 160.835 TC 2 55
1967060S22159 1967 18 SP MM NOT_NAMED 1967-03-07 05:00:00 TS -38.2647 163.904 main 742 742 P________PO_P_ SH211967 -38.3964 164.142 25 -1 -38.3964 164.142 TC 25 -38.4000 164.100 1 -36.7197 161.200 TC 5 324
1967060S22159 1967 18 SP MM NOT_NAMED 1967-03-07 06:00:00 TS -38.1947 163.791 main 755 742 O________OP_O_ jtwc_sh SH211967 -38.4000 164.200 25 -1 -38.4000 164.200 TC 25 -38.4315 164.170 1 -36.9000 161.400 TC 25 1 216
1967060S22159 1967 18 SP MM NOT_NAMED 1967-03-07 09:00:00 TS -38.2966 163.878 main 742 728 P________PP_P_ SH211967 -38.4849 164.308 22 -1 -38.4849 164.308 TC 22 -38.5187 164.340 1 -37.4759 162.140 TC 27 3 143
1967060S22159 1967 18 SP MM NOT_NAMED 1967-03-07 12:00:00 TS -38.4268 164.018 main 728 710 O________OP_O_ jtwc_sh SH211967 -38.6000 164.400 20 -1 -38.6000 164.400 TC 20 -38.6073 164.474 1 -37.9000 162.800 TC 30 4 129
1967060S22159 1967 18 SP MM NOT_NAMED 1967-03-07 15:00:00 TS -38.5336 164.246 main 710 692 P________PP_P_ SH211967 -38.6850 164.585 20 -1 -38.6850 164.585 TC 20 -38.7127 164.602 1 -38.0518 163.212 TC 30 4 120
1967060S22159 1967 18 SP MM NOT_NAMED 1967-03-07 17:00:00 TS -38.5980 164.391 main 692 688 P________PO_P_ SH211967 -38.7553 164.728 20 -1 -38.7553 164.728 TC 20 -38.8000 164.700 1 -38.0817 163.408 TC 30 4 120
1967060S22159 1967 18 SP MM NOT_NAMED 1967-03-07 18:00:00 TS -38.6322 164.467 main 688 660 O________OP_O_ jtwc_sh SH211967 -38.8000 164.800 20 -1 -38.8000 164.800 TC 20 -38.8287 164.768 1 -38.1000 163.500 TC 30 5 127
1967060S22159 1967 18 SP MM NOT_NAMED 1967-03-07 21:00:00 TS -38.7829 164.701 main 660 633 P________PP_P_ SH211967 -38.9774 164.993 20 -1 -38.9774 164.993 TC 20 -38.9267 164.989 1 -38.2500 163.830 TC 30 5 133
1967060S22159 1967 18 SP MM NOT_NAMED 1967-03-08 00:00:00 TS -38.9703 164.931 main 633 614 O________OP_O_ jtwc_sh SH211967 -39.2000 165.200 20 -1 -39.2000 165.200 TC 20 -39.0812 165.223 1 -38.4000 164.100 TC 30 5 136
1967060S22159 1967 18 SP MM NOT_NAMED 1967-03-08 03:00:00 TS -39.1574 165.161 main 600 586 P________PP_P_ SH211967 -39.3901 165.458 20 -1 -39.3901 165.458 TC 20 -39.3421 165.455 1 -38.5074 164.273 TC 30 6 141
1967060S22159 1967 18 SP MM NOT_NAMED 1967-03-08 05:00:00 TS -39.3294 165.302 main 586 577 P________PO_P_ SH211967 -39.5741 165.626 20 -1 -39.5741 165.626 TC 20 -39.6000 165.600 1 -38.5692 164.358 TC 30 5 153
1967060S22159 1967 18 SP MM NOT_NAMED 1967-03-08 06:00:00 TS -39.4026 165.320 main 577 544 O________OP_O_ jtwc_sh SH211967 -39.7000 165.700 20 -1 -39.7000 165.700 TC 20 -39.7591 165.668 1 -38.6000 164.400 TC 30 7 169
1967060S22159 1967 18 SP MM NOT_NAMED 1967-03-08 09:00:00 TS -39.7543 165.422 main 534 514 P________PP_P_ SH211967 -40.2325 165.872 20 -1 -40.2325 165.872 TC 20 -40.3456 165.857 1 -38.6849 164.535 TC 30 6 172
1967060S22159 1967 18 SP MM NOT_NAMED 1967-03-08 12:00:00 TS -40.0196 165.432 main 514 514 O________OP_O_ jtwc_sh SH211967 -40.9000 166.000 20 -1 -40.9000 166.000 TC 20 -41.0589 166.029 1 -38.8000 164.700 TC 30 2 191
1967060S22159 1967 18 SP MM NOT_NAMED 1967-03-08 15:00:00 TS -39.9405 165.359 main 524 514 __________P_P_ SH211967 -1 TC -41.8514 166.192 1 -38.9851 164.942 TC 30 3 346
1967060S22159 1967 18 SP MM NOT_NAMED 1967-03-08 17:00:00 TS -39.7825 165.354 main 534 534 __________O_P_ SH211967 -1 TC -42.4000 166.300 1 -39.1281 165.117 TC 30 15 351
1967060S22159 1967 18 SP MM NOT_NAMED 1967-03-08 18:00:00 TS -39.2000 165.200 main 600 582 ____________O_ -1 1 -39.2000 165.200 TC 30 7 4
1967060S22159 1967 18 SP MM NOT_NAMED 1967-03-08 21:00:00 TS -39.3324 165.401 main 582 544 ____________P_ -1 1 -39.3324 165.401 TC 30 5 142
1967060S22159 1967 18 SP MM NOT_NAMED 1967-03-09 00:00:00 TS -39.6000 165.600 main 544 488 ____________O_ -1 1 -39.6000 165.600 TC 30 9 157
1967060S22159 1967 18 SP MM NOT_NAMED 1967-03-09 03:00:00 TS -40.1676 165.864 main 474 398 ____________P_ -1 1 -40.1676 165.864 TC 30 14 164
1967060S22159 1967 18 SP MM NOT_NAMED 1967-03-09 06:00:00 TS -40.9000 166.100 main 398 326 ____________O_ -1 -40.9000 166.100 TC 30 15 169
1967060S22159 1967 18 SP MM NOT_NAMED 1967-03-09 09:00:00 TS -41.6524 166.233 main 316 248 ____________P_ -1 -41.6524 166.233 TC 30 15 174
1967060S22159 1967 18 SP MM NOT_NAMED 1967-03-09 12:00:00 TS -42.4000 166.300 main 248 ____________O_ -1 -42.4000 166.300 TC 30 15 176

Digital Typhoon Data and Search

About IBTrACS Database

This database is a web-friendly format of International Best Track Archive for Climate Stewardship (IBTrACS), a global best track data archive curated by NOAA dating back to 1842.

Updated: 2021-12-03